Las Animas, Colorado
Current Conditions -  °F | °C
As of 12:53 PM on Monday 26 Jan 2015 (Local Time) from KLHX Reporting Station
Clear Clear  
Wind Chill: 66°   Ceiling: Unl
Heat Index: 66°   Visibility: 10mi
Dew Point: 33°   Wind: 9mph
Humidity: 29%   Direction: 230°SW
Pressure: 30.22"   Gusts: NA
Location:  38.07°N, 103.22°W
Report Text: KLHX 261953Z AUTO 23008KT 10SM CLR 19/01 A3022 RMK AO2 SLP216 T01890006
Loading
Personal Weather Stations






























Interactive Weather Map New forecast layout! Learn more

10-Day Weather Forecast

Advertisements
Track Severe Weather on mobile